aviador You're here:

FMCH Decoded Metar

MORONI in COMOROS ISLANDS
Report Time2018-06-25 11:00:00
UTC Time2018-06-25 11:46:01
Flight Rules vfr VFR
Wind220° at 14 kt
W.Decomp.*RWY 20: 12.6 kt HW 6.1 kt RCW
W.Rank220° ranks 9
Current wind is above 220° avg. (7.2)
Visibility9999 m
Phenomena:N/A
Clouds:Few 020 Hf
Scattered 028 Hf
Expected CloudBase > 2,400 ft AGL from Temp-Dew spread
CeilingNone
Temp28°C (ISA +13)
Dew Point22°C (70% RH)
Heat Index30.7°C
AAT27.7°C
QNH1015 hPa
Density Alt1,893 ft
Elevation95 ft
Report Wrong Elevation
Raw Report
FMCH 251100Z 22014KT 9999 FEW020 SCT028 28/22 Q1015 NOSIG=

Extra information for FMCH:More info

Metar Taf Metar & Taf Last 4 Metars F.Rules Stats Wind Profile Meteogram Temp Stats Airport Information Weather charts Add Link Nearby VenuesMetar ALERT Operation Metar Decoded Social comments